sensor_id;sensor_type;location;lat;lon;timestamp;P1;durP1;ratioP1;P2;durP2;ratioP2
1537;SDS011;12022;52.266;10.522;2023-06-04T00:02:21;1.73;;;1.73;;
1537;SDS011;12022;52.266;10.522;2023-06-04T00:04:48;3.53;;;3.53;;
1537;SDS011;12022;52.266;10.522;2023-06-04T00:07:15;3.67;;;3.67;;
1537;SDS011;12022;52.266;10.522;2023-06-04T00:09:42;2.40;;;2.40;;
1537;SDS011;12022;52.266;10.522;2023-06-04T00:12:10;3.67;;;3.67;;
1537;SDS011;12022;52.266;10.522;2023-06-04T00:14:37;2.70;;;2.70;;
1537;SDS011;12022;52.266;10.522;2023-06-04T00:17:04;2.60;;;2.60;;
1537;SDS011;12022;52.266;10.522;2023-06-04T00:19:31;3.23;;;3.23;;
1537;SDS011;12022;52.266;10.522;2023-06-04T00:22:00;4.60;;;4.50;;
1537;SDS011;12022;52.266;10.522;2023-06-04T00:24:27;2.43;;;2.43;;
1537;SDS011;12022;52.266;10.522;2023-06-04T00:26:54;2.77;;;2.77;;
1537;SDS011;12022;52.266;10.522;2023-06-04T00:29:21;3.73;;;3.73;;
1537;SDS011;12022;52.266;10.522;2023-06-04T00:31:48;2.03;;;2.03;;
1537;SDS011;12022;52.266;10.522;2023-06-04T00:34:16;2.67;;;2.67;;
1537;SDS011;12022;52.266;10.522;2023-06-04T00:36:44;2.90;;;2.90;;
1537;SDS011;12022;52.266;10.522;2023-06-04T00:39:11;2.53;;;2.53;;
1537;SDS011;12022;52.266;10.522;2023-06-04T00:41:38;2.33;;;2.33;;
1537;SDS011;12022;52.266;10.522;2023-06-04T00:44:04;6.83;;;6.73;;
1537;SDS011;12022;52.266;10.522;2023-06-04T00:46:32;3.43;;;3.43;;
1537;SDS011;12022;52.266;10.522;2023-06-04T00:49:02;2.70;;;2.70;;
1537;SDS011;12022;52.266;10.522;2023-06-04T00:51:31;1.77;;;1.77;;
1537;SDS011;12022;52.266;10.522;2023-06-04T00:54:00;3.40;;;3.40;;
1537;SDS011;12022;52.266;10.522;2023-06-04T00:56:37;6.00;;;5.90;;
1537;SDS011;12022;52.266;10.522;2023-06-04T00:59:08;2.70;;;2.70;;
1537;SDS011;12022;52.266;10.522;2023-06-04T01:04:14;10.70;;;10.50;;
1537;SDS011;12022;52.266;10.522;2023-06-04T01:06:49;2.53;;;2.53;;
1537;SDS011;12022;52.266;10.522;2023-06-04T01:09:18;3.30;;;3.30;;
1537;SDS011;12022;52.266;10.522;2023-06-04T01:11:45;3.70;;;3.70;;
1537;SDS011;12022;52.266;10.522;2023-06-04T01:14:12;3.50;;;3.50;;
1537;SDS011;12022;52.266;10.522;2023-06-04T01:19:17;5.07;;;5.00;;
1537;SDS011;12022;52.266;10.522;2023-06-04T01:22:01;3.83;;;3.83;;
1537;SDS011;12022;52.266;10.522;2023-06-04T01:24:37;4.07;;;4.07;;
1537;SDS011;12022;52.266;10.522;2023-06-04T01:27:14;4.77;;;4.70;;
1537;SDS011;12022;52.266;10.522;2023-06-04T01:29:42;4.10;;;4.10;;
1537;SDS011;12022;52.266;10.522;2023-06-04T01:32:09;3.67;;;3.67;;
1537;SDS011;12022;52.266;10.522;2023-06-04T01:34:45;3.97;;;3.97;;
1537;SDS011;12022;52.266;10.522;2023-06-04T01:37:13;3.47;;;3.47;;
1537;SDS011;12022;52.266;10.522;2023-06-04T01:39:39;3.13;;;3.13;;
1537;SDS011;12022;52.266;10.522;2023-06-04T01:42:07;3.87;;;3.87;;
1537;SDS011;12022;52.266;10.522;2023-06-04T01:44:35;3.77;;;3.77;;
1537;SDS011;12022;52.266;10.522;2023-06-04T01:47:02;4.20;;;4.20;;
1537;SDS011;12022;52.266;10.522;2023-06-04T01:49:29;5.00;;;4.93;;
1537;SDS011;12022;52.266;10.522;2023-06-04T01:51:56;3.33;;;3.33;;
1537;SDS011;12022;52.266;10.522;2023-06-04T01:54:23;2.63;;;2.63;;
1537;SDS011;12022;52.266;10.522;2023-06-04T01:56:50;3.30;;;3.30;;
1537;SDS011;12022;52.266;10.522;2023-06-04T01:59:16;3.40;;;3.40;;
1537;SDS011;12022;52.266;10.522;2023-06-04T02:01:43;4.80;;;4.80;;
1537;SDS011;12022;52.266;10.522;2023-06-04T02:04:10;1.97;;;1.97;;
1537;SDS011;12022;52.266;10.522;2023-06-04T02:06:37;2.07;;;2.07;;
1537;SDS011;12022;52.266;10.522;2023-06-04T02:09:04;3.10;;;3.10;;
1537;SDS011;12022;52.266;10.522;2023-06-04T02:11:31;2.60;;;2.60;;
1537;SDS011;12022;52.266;10.522;2023-06-04T02:13:58;3.63;;;3.60;;
1537;SDS011;12022;52.266;10.522;2023-06-04T02:16:25;3.83;;;3.83;;
1537;SDS011;12022;52.266;10.522;2023-06-04T02:18:52;3.57;;;3.57;;
1537;SDS011;12022;52.266;10.522;2023-06-04T02:21:19;2.13;;;2.13;;
1537;SDS011;12022;52.266;10.522;2023-06-04T02:23:46;3.77;;;3.77;;
1537;SDS011;12022;52.266;10.522;2023-06-04T02:26:14;1.80;;;1.80;;
1537;SDS011;12022;52.266;10.522;2023-06-04T02:28:41;3.53;;;3.53;;
1537;SDS011;12022;52.266;10.522;2023-06-04T02:31:08;4.30;;;4.30;;
1537;SDS011;12022;52.266;10.522;2023-06-04T02:33:35;1.93;;;1.93;;
1537;SDS011;12022;52.266;10.522;2023-06-04T02:36:02;3.10;;;3.10;;
1537;SDS011;12022;52.266;10.522;2023-06-04T02:38:29;1.43;;;1.43;;
1537;SDS011;12022;52.266;10.522;2023-06-04T02:40:56;2.63;;;2.63;;
1537;SDS011;12022;52.266;10.522;2023-06-04T02:43:23;2.53;;;2.53;;
1537;SDS011;12022;52.266;10.522;2023-06-04T02:45:49;3.20;;;3.20;;
1537;SDS011;12022;52.266;10.522;2023-06-04T02:48:17;7.80;;;7.70;;
1537;SDS011;12022;52.266;10.522;2023-06-04T02:50:43;4.60;;;4.60;;
1537;SDS011;12022;52.266;10.522;2023-06-04T02:53:10;8.50;;;8.40;;
1537;SDS011;12022;52.266;10.522;2023-06-04T02:55:37;3.90;;;3.90;;
1537;SDS011;12022;52.266;10.522;2023-06-04T02:58:04;3.87;;;3.87;;
1537;SDS011;12022;52.266;10.522;2023-06-04T03:00:31;2.57;;;2.57;;
1537;SDS011;12022;52.266;10.522;2023-06-04T03:02:59;5.50;;;5.40;;
1537;SDS011;12022;52.266;10.522;2023-06-04T03:05:28;4.80;;;4.80;;
1537;SDS011;12022;52.266;10.522;2023-06-04T03:08:00;4.07;;;4.07;;
1537;SDS011;12022;52.266;10.522;2023-06-04T03:10:29;3.80;;;3.80;;
1537;SDS011;12022;52.266;10.522;2023-06-04T03:12:57;4.63;;;4.63;;
1537;SDS011;12022;52.266;10.522;2023-06-04T03:15:24;3.60;;;3.60;;
1537;SDS011;12022;52.266;10.522;2023-06-04T03:17:51;3.50;;;3.50;;
1537;SDS011;12022;52.266;10.522;2023-06-04T03:20:18;5.07;;;4.97;;
1537;SDS011;12022;52.266;10.522;2023-06-04T03:22:45;3.30;;;3.30;;
1537;SDS011;12022;52.266;10.522;2023-06-04T03:25:12;5.37;;;5.27;;
1537;SDS011;12022;52.266;10.522;2023-06-04T03:27:39;4.10;;;4.10;;
1537;SDS011;12022;52.266;10.522;2023-06-04T03:30:06;2.60;;;2.60;;
1537;SDS011;12022;52.266;10.522;2023-06-04T03:32:33;3.60;;;3.60;;
1537;SDS011;12022;52.266;10.522;2023-06-04T03:35:00;4.53;;;4.43;;
1537;SDS011;12022;52.266;10.522;2023-06-04T03:37:27;2.50;;;2.50;;
1537;SDS011;12022;52.266;10.522;2023-06-04T03:39:55;13.90;;;13.60;;
1537;SDS011;12022;52.266;10.522;2023-06-04T03:42:21;4.87;;;4.87;;
1537;SDS011;12022;52.266;10.522;2023-06-04T03:44:48;3.30;;;3.30;;
1537;SDS011;12022;52.266;10.522;2023-06-04T03:47:15;3.50;;;3.50;;
1537;SDS011;12022;52.266;10.522;2023-06-04T03:49:42;3.60;;;3.60;;
1537;SDS011;12022;52.266;10.522;2023-06-04T03:52:09;4.33;;;4.33;;
1537;SDS011;12022;52.266;10.522;2023-06-04T03:54:36;3.10;;;3.10;;
1537;SDS011;12022;52.266;10.522;2023-06-04T03:57:03;3.67;;;3.67;;
1537;SDS011;12022;52.266;10.522;2023-06-04T03:59:30;4.27;;;4.27;;
1537;SDS011;12022;52.266;10.522;2023-06-04T04:01:59;3.00;;;3.00;;
1537;SDS011;12022;52.266;10.522;2023-06-04T04:04:26;4.60;;;4.57;;
1537;SDS011;12022;52.266;10.522;2023-06-04T04:06:53;2.83;;;2.83;;
1537;SDS011;12022;52.266;10.522;2023-06-04T04:09:20;3.20;;;3.20;;
1537;SDS011;12022;52.266;10.522;2023-06-04T04:11:47;2.63;;;2.63;;
1537;SDS011;12022;52.266;10.522;2023-06-04T04:14:14;4.00;;;4.00;;
1537;SDS011;12022;52.266;10.522;2023-06-04T04:16:41;6.30;;;6.20;;
1537;SDS011;12022;52.266;10.522;2023-06-04T04:19:08;3.13;;;3.13;;
1537;SDS011;12022;52.266;10.522;2023-06-04T04:21:35;3.70;;;3.67;;
1537;SDS011;12022;52.266;10.522;2023-06-04T04:24:03;2.90;;;2.90;;
1537;SDS011;12022;52.266;10.522;2023-06-04T04:26:30;3.70;;;3.70;;
1537;SDS011;12022;52.266;10.522;2023-06-04T04:28:57;4.30;;;4.30;;
1537;SDS011;12022;52.266;10.522;2023-06-04T04:31:25;2.57;;;2.57;;
1537;SDS011;12022;52.266;10.522;2023-06-04T04:33:54;2.73;;;2.73;;
1537;SDS011;12022;52.266;10.522;2023-06-04T04:36:22;3.13;;;3.13;;
1537;SDS011;12022;52.266;10.522;2023-06-04T04:38:50;4.30;;;4.20;;
1537;SDS011;12022;52.266;10.522;2023-06-04T04:41:20;2.60;;;2.60;;
1537;SDS011;12022;52.266;10.522;2023-06-04T04:43:49;2.67;;;2.67;;
1537;SDS011;12022;52.266;10.522;2023-06-04T04:46:18;3.33;;;3.33;;
1537;SDS011;12022;52.266;10.522;2023-06-04T04:48:46;3.23;;;3.23;;
1537;SDS011;12022;52.266;10.522;2023-06-04T04:51:12;5.27;;;5.17;;
1537;SDS011;12022;52.266;10.522;2023-06-04T04:53:39;4.97;;;4.87;;
1537;SDS011;12022;52.266;10.522;2023-06-04T04:56:06;4.57;;;4.57;;
1537;SDS011;12022;52.266;10.522;2023-06-04T04:58:33;5.53;;;5.43;;
1537;SDS011;12022;52.266;10.522;2023-06-04T05:01:00;7.30;;;7.20;;
1537;SDS011;12022;52.266;10.522;2023-06-04T05:03:27;6.50;;;6.40;;
1537;SDS011;12022;52.266;10.522;2023-06-04T05:05:54;6.70;;;6.60;;
1537;SDS011;12022;52.266;10.522;2023-06-04T05:08:21;7.00;;;6.90;;
1537;SDS011;12022;52.266;10.522;2023-06-04T05:10:48;4.33;;;4.30;;
1537;SDS011;12022;52.266;10.522;2023-06-04T05:13:16;6.67;;;6.57;;
1537;SDS011;12022;52.266;10.522;2023-06-04T05:15:43;5.03;;;4.93;;
1537;SDS011;12022;52.266;10.522;2023-06-04T05:18:10;7.63;;;7.53;;
1537;SDS011;12022;52.266;10.522;2023-06-04T05:20:38;11.13;;;10.93;;
1537;SDS011;12022;52.266;10.522;2023-06-04T05:23:05;7.10;;;7.00;;
1537;SDS011;12022;52.266;10.522;2023-06-04T05:25:32;9.90;;;9.70;;
1537;SDS011;12022;52.266;10.522;2023-06-04T05:27:59;11.50;;;11.30;;
1537;SDS011;12022;52.266;10.522;2023-06-04T05:30:26;8.03;;;7.93;;
1537;SDS011;12022;52.266;10.522;2023-06-04T05:32:53;6.90;;;6.80;;
1537;SDS011;12022;52.266;10.522;2023-06-04T05:35:20;12.10;;;11.90;;
1537;SDS011;12022;52.266;10.522;2023-06-04T05:37:47;69.03;;;67.30;;
1537;SDS011;12022;52.266;10.522;2023-06-04T05:40:20;22.00;;;21.50;;
1537;SDS011;12022;52.266;10.522;2023-06-04T05:42:47;16.20;;;15.90;;
1537;SDS011;12022;52.266;10.522;2023-06-04T05:45:15;14.73;;;14.43;;
1537;SDS011;12022;52.266;10.522;2023-06-04T05:47:41;10.47;;;10.27;;
1537;SDS011;12022;52.266;10.522;2023-06-04T05:50:09;16.20;;;15.90;;
1537;SDS011;12022;52.266;10.522;2023-06-04T05:52:36;13.27;;;13.03;;
1537;SDS011;12022;52.266;10.522;2023-06-04T05:55:04;10.43;;;10.23;;
1537;SDS011;12022;52.266;10.522;2023-06-04T05:57:33;10.40;;;10.20;;
1537;SDS011;12022;52.266;10.522;2023-06-04T06:00:01;12.80;;;12.60;;
1537;SDS011;12022;52.266;10.522;2023-06-04T06:02:28;10.17;;;9.97;;
1537;SDS011;12022;52.266;10.522;2023-06-04T06:04:57;14.13;;;13.83;;
1537;SDS011;12022;52.266;10.522;2023-06-04T06:07:23;19.70;;;19.30;;
1537;SDS011;12022;52.266;10.522;2023-06-04T06:09:50;14.97;;;14.67;;
1537;SDS011;12022;52.266;10.522;2023-06-04T06:12:17;21.60;;;21.13;;
1537;SDS011;12022;52.266;10.522;2023-06-04T06:14:44;17.03;;;16.70;;
1537;SDS011;12022;52.266;10.522;2023-06-04T06:17:11;16.63;;;16.33;;
1537;SDS011;12022;52.266;10.522;2023-06-04T06:19:38;19.50;;;19.10;;
1537;SDS011;12022;52.266;10.522;2023-06-04T06:22:06;19.53;;;19.13;;
1537;SDS011;12022;52.266;10.522;2023-06-04T06:24:33;46.03;;;44.90;;
1537;SDS011;12022;52.266;10.522;2023-06-04T06:27:00;21.57;;;21.07;;
1537;SDS011;12022;52.266;10.522;2023-06-04T06:29:27;22.40;;;21.90;;
1537;SDS011;12022;52.266;10.522;2023-06-04T06:31:54;16.07;;;15.73;;
1537;SDS011;12022;52.266;10.522;2023-06-04T06:34:21;22.00;;;21.50;;
1537;SDS011;12022;52.266;10.522;2023-06-04T06:36:48;22.93;;;22.43;;
1537;SDS011;12022;52.266;10.522;2023-06-04T06:39:16;21.03;;;20.53;;
1537;SDS011;12022;52.266;10.522;2023-06-04T06:41:43;18.10;;;17.70;;
1537;SDS011;12022;52.266;10.522;2023-06-04T06:44:10;17.40;;;17.00;;
1537;SDS011;12022;52.266;10.522;2023-06-04T06:46:37;26.50;;;25.90;;
1537;SDS011;12022;52.266;10.522;2023-06-04T06:49:03;23.27;;;22.77;;
1537;SDS011;12022;52.266;10.522;2023-06-04T06:51:30;25.43;;;24.83;;
1537;SDS011;12022;52.266;10.522;2023-06-04T06:53:57;29.60;;;28.90;;
1537;SDS011;12022;52.266;10.522;2023-06-04T06:56:24;23.00;;;22.50;;
1537;SDS011;12022;52.266;10.522;2023-06-04T06:58:52;27.53;;;26.83;;
1537;SDS011;12022;52.266;10.522;2023-06-04T07:01:19;39.23;;;38.30;;
1537;SDS011;12022;52.266;10.522;2023-06-04T07:03:47;24.00;;;23.50;;
1537;SDS011;12022;52.266;10.522;2023-06-04T07:06:14;40.60;;;39.60;;
1537;SDS011;12022;52.266;10.522;2023-06-04T07:08:42;21.50;;;21.00;;
1537;SDS011;12022;52.266;10.522;2023-06-04T07:11:09;19.87;;;19.47;;
1537;SDS011;12022;52.266;10.522;2023-06-04T07:13:38;31.57;;;30.80;;
1537;SDS011;12022;52.266;10.522;2023-06-04T07:16:05;22.67;;;22.17;;
1537;SDS011;12022;52.266;10.522;2023-06-04T07:18:32;29.73;;;29.03;;
1537;SDS011;12022;52.266;10.522;2023-06-04T07:21:00;23.07;;;22.57;;
1537;SDS011;12022;52.266;10.522;2023-06-04T07:23:26;18.97;;;18.57;;
1537;SDS011;12022;52.266;10.522;2023-06-04T07:25:53;30.77;;;30.07;;
1537;SDS011;12022;52.266;10.522;2023-06-04T07:28:21;20.37;;;19.97;;
1537;SDS011;12022;52.266;10.522;2023-06-04T07:30:48;22.27;;;21.77;;
1537;SDS011;12022;52.266;10.522;2023-06-04T07:33:15;33.07;;;32.27;;
1537;SDS011;12022;52.266;10.522;2023-06-04T07:35:42;35.80;;;34.93;;
1537;SDS011;12022;52.266;10.522;2023-06-04T07:38:09;18.20;;;17.80;;
1537;SDS011;12022;52.266;10.522;2023-06-04T07:40:36;20.50;;;20.10;;
1537;SDS011;12022;52.266;10.522;2023-06-04T07:43:03;19.87;;;19.43;;
1537;SDS011;12022;52.266;10.522;2023-06-04T07:45:30;22.30;;;21.80;;
1537;SDS011;12022;52.266;10.522;2023-06-04T07:48:01;18.47;;;18.07;;
1537;SDS011;12022;52.266;10.522;2023-06-04T07:50:28;17.03;;;16.63;;
1537;SDS011;12022;52.266;10.522;2023-06-04T07:52:55;24.47;;;23.97;;
1537;SDS011;12022;52.266;10.522;2023-06-04T07:55:22;30.30;;;29.60;;
1537;SDS011;12022;52.266;10.522;2023-06-04T07:58:03;24.73;;;24.20;;
1537;SDS011;12022;52.266;10.522;2023-06-04T08:00:32;38.50;;;37.60;;
1537;SDS011;12022;52.266;10.522;2023-06-04T08:02:59;23.17;;;22.67;;
1537;SDS011;12022;52.266;10.522;2023-06-04T08:05:27;27.37;;;26.70;;
1537;SDS011;12022;52.266;10.522;2023-06-04T08:07:54;23.57;;;23.07;;
1537;SDS011;12022;52.266;10.522;2023-06-04T08:10:21;21.67;;;21.17;;
1537;SDS011;12022;52.266;10.522;2023-06-04T08:12:48;26.17;;;25.57;;
1537;SDS011;12022;52.266;10.522;2023-06-04T08:15:15;26.17;;;25.57;;
1537;SDS011;12022;52.266;10.522;2023-06-04T08:17:42;20.40;;;20.00;;
1537;SDS011;12022;52.266;10.522;2023-06-04T08:20:09;19.93;;;19.43;;
1537;SDS011;12022;52.266;10.522;2023-06-04T08:22:36;61.77;;;60.17;;
1537;SDS011;12022;52.266;10.522;2023-06-04T08:25:03;24.90;;;24.30;;
1537;SDS011;12022;52.266;10.522;2023-06-04T08:27:35;19.40;;;19.00;;
1537;SDS011;12022;52.266;10.522;2023-06-04T08:30:04;19.47;;;19.07;;
1537;SDS011;12022;52.266;10.522;2023-06-04T08:32:32;17.33;;;16.93;;
1537;SDS011;12022;52.266;10.522;2023-06-04T08:34:59;18.93;;;18.53;;
1537;SDS011;12022;52.266;10.522;2023-06-04T08:37:26;9.27;;;9.17;;
1537;SDS011;12022;52.266;10.522;2023-06-04T08:39:53;7.57;;;7.47;;
1537;SDS011;12022;52.266;10.522;2023-06-04T08:44:59;7.47;;;7.37;;
1537;SDS011;12022;52.266;10.522;2023-06-04T08:47:27;9.47;;;9.33;;
1537;SDS011;12022;52.266;10.522;2023-06-04T08:49:58;7.37;;;7.27;;
1537;SDS011;12022;52.266;10.522;2023-06-04T08:52:27;11.37;;;11.17;;
1537;SDS011;12022;52.266;10.522;2023-06-04T08:54:54;7.50;;;7.40;;
1537;SDS011;12022;52.266;10.522;2023-06-04T08:57:21;14.03;;;13.73;;
1537;SDS011;12022;52.266;10.522;2023-06-04T08:59:48;6.13;;;6.03;;
1537;SDS011;12022;52.266;10.522;2023-06-04T09:02:17;6.57;;;6.47;;
1537;SDS011;12022;52.266;10.522;2023-06-04T09:04:45;7.70;;;7.60;;
1537;SDS011;12022;52.266;10.522;2023-06-04T09:07:13;5.10;;;5.00;;
1537;SDS011;12022;52.266;10.522;2023-06-04T09:09:41;5.07;;;4.97;;
1537;SDS011;12022;52.266;10.522;2023-06-04T09:12:23;6.67;;;6.57;;
1537;SDS011;12022;52.266;10.522;2023-06-04T09:14:51;5.40;;;5.30;;
1537;SDS011;12022;52.266;10.522;2023-06-04T09:17:22;5.30;;;5.20;;
1537;SDS011;12022;52.266;10.522;2023-06-04T09:19:51;5.50;;;5.40;;
1537;SDS011;12022;52.266;10.522;2023-06-04T09:22:18;8.67;;;8.57;;
1537;SDS011;12022;52.266;10.522;2023-06-04T09:24:46;15.53;;;15.23;;
1537;SDS011;12022;52.266;10.522;2023-06-04T09:27:16;13.50;;;13.30;;
1537;SDS011;12022;52.266;10.522;2023-06-04T09:29:56;9.70;;;9.53;;
1537;SDS011;12022;52.266;10.522;2023-06-04T09:32:24;9.30;;;9.20;;
1537;SDS011;12022;52.266;10.522;2023-06-04T09:34:53;8.33;;;8.23;;
1537;SDS011;12022;52.266;10.522;2023-06-04T09:37:23;7.53;;;7.43;;
1537;SDS011;12022;52.266;10.522;2023-06-04T09:39:57;13.67;;;13.43;;
1537;SDS011;12022;52.266;10.522;2023-06-04T09:42:24;4.50;;;4.50;;
1537;SDS011;12022;52.266;10.522;2023-06-04T09:44:51;5.40;;;5.30;;
1537;SDS011;12022;52.266;10.522;2023-06-04T09:47:18;6.60;;;6.50;;
1537;SDS011;12022;52.266;10.522;2023-06-04T09:49:46;7.67;;;7.57;;
1537;SDS011;12022;52.266;10.522;2023-06-04T09:52:16;6.17;;;6.07;;
1537;SDS011;12022;52.266;10.522;2023-06-04T09:54:43;8.63;;;8.53;;
1537;SDS011;12022;52.266;10.522;2023-06-04T09:57:14;5.20;;;5.10;;
1537;SDS011;12022;52.266;10.522;2023-06-04T09:59:49;3.47;;;3.47;;
1537;SDS011;12022;52.266;10.522;2023-06-04T10:02:27;4.67;;;4.57;;
1537;SDS011;12022;52.266;10.522;2023-06-04T10:04:56;4.20;;;4.20;;
1537;SDS011;12022;52.266;10.522;2023-06-04T10:07:26;4.77;;;4.70;;
1537;SDS011;12022;52.266;10.522;2023-06-04T10:09:53;3.47;;;3.47;;
1537;SDS011;12022;52.266;10.522;2023-06-04T10:12:23;3.20;;;3.20;;
1537;SDS011;12022;52.266;10.522;2023-06-04T10:15:02;4.37;;;4.27;;
1537;SDS011;12022;52.266;10.522;2023-06-04T10:17:31;3.60;;;3.60;;
1537;SDS011;12022;52.266;10.522;2023-06-04T10:20:00;6.03;;;5.93;;
1537;SDS011;12022;52.266;10.522;2023-06-04T10:22:30;4.23;;;4.23;;
1537;SDS011;12022;52.266;10.522;2023-06-04T10:24:58;8.93;;;8.83;;
1537;SDS011;12022;52.266;10.522;2023-06-04T10:27:25;6.50;;;6.40;;
1537;SDS011;12022;52.266;10.522;2023-06-04T10:29:52;6.30;;;6.20;;
1537;SDS011;12022;52.266;10.522;2023-06-04T10:32:20;5.33;;;5.23;;
1537;SDS011;12022;52.266;10.522;2023-06-04T10:34:47;4.67;;;4.57;;
1537;SDS011;12022;52.266;10.522;2023-06-04T10:37:24;5.00;;;4.90;;
1537;SDS011;12022;52.266;10.522;2023-06-04T10:39:52;5.37;;;5.27;;
1537;SDS011;12022;52.266;10.522;2023-06-04T10:42:22;5.33;;;5.23;;
1537;SDS011;12022;52.266;10.522;2023-06-04T10:44:51;3.20;;;3.20;;
1537;SDS011;12022;52.266;10.522;2023-06-04T10:47:27;3.23;;;3.23;;
1537;SDS011;12022;52.266;10.522;2023-06-04T10:50:06;3.37;;;3.37;;
1537;SDS011;12022;52.266;10.522;2023-06-04T10:52:38;3.97;;;3.97;;
1537;SDS011;12022;52.266;10.522;2023-06-04T10:55:16;5.30;;;5.20;;
1537;SDS011;12022;52.266;10.522;2023-06-04T10:57:53;4.70;;;4.63;;
1537;SDS011;12022;52.266;10.522;2023-06-04T11:00:39;4.70;;;4.67;;
1537;SDS011;12022;52.266;10.522;2023-06-04T11:03:09;4.90;;;4.80;;
1537;SDS011;12022;52.266;10.522;2023-06-04T11:05:41;10.33;;;10.13;;
1537;SDS011;12022;52.266;10.522;2023-06-04T11:08:09;7.10;;;7.00;;
1537;SDS011;12022;52.266;10.522;2023-06-04T11:10:38;4.90;;;4.80;;
1537;SDS011;12022;52.266;10.522;2023-06-04T11:13:06;12.33;;;12.13;;
1537;SDS011;12022;52.266;10.522;2023-06-04T11:15:44;4.97;;;4.87;;
1537;SDS011;12022;52.266;10.522;2023-06-04T11:18:16;7.00;;;6.90;;
1537;SDS011;12022;52.266;10.522;2023-06-04T11:20:44;4.90;;;4.80;;
1537;SDS011;12022;52.266;10.522;2023-06-04T11:23:16;3.80;;;3.80;;
1537;SDS011;12022;52.266;10.522;2023-06-04T11:25:44;3.23;;;3.23;;
1537;SDS011;12022;52.266;10.522;2023-06-04T11:28:15;3.70;;;3.70;;
1537;SDS011;12022;52.266;10.522;2023-06-04T11:30:55;3.00;;;3.00;;
1537;SDS011;12022;52.266;10.522;2023-06-04T11:33:26;3.03;;;3.03;;
1537;SDS011;12022;52.266;10.522;2023-06-04T11:35:53;3.20;;;3.20;;
1537;SDS011;12022;52.266;10.522;2023-06-04T11:38:20;3.23;;;3.23;;
1537;SDS011;12022;52.266;10.522;2023-06-04T11:40:57;4.40;;;4.40;;
1537;SDS011;12022;52.266;10.522;2023-06-04T11:43:28;5.83;;;5.73;;
1537;SDS011;12022;52.266;10.522;2023-06-04T11:45:55;3.53;;;3.53;;
1537;SDS011;12022;52.266;10.522;2023-06-04T11:48:23;6.03;;;5.93;;
1537;SDS011;12022;52.266;10.522;2023-06-04T11:50:50;3.63;;;3.63;;
1537;SDS011;12022;52.266;10.522;2023-06-04T11:53:17;5.93;;;5.83;;
1537;SDS011;12022;52.266;10.522;2023-06-04T11:55:44;5.00;;;4.90;;
1537;SDS011;12022;52.266;10.522;2023-06-04T11:58:12;4.43;;;4.33;;
1537;SDS011;12022;52.266;10.522;2023-06-04T12:00:40;4.83;;;4.73;;
1537;SDS011;12022;52.266;10.522;2023-06-04T12:03:07;3.40;;;3.40;;
1537;SDS011;12022;52.266;10.522;2023-06-04T12:05:34;4.30;;;4.30;;
1537;SDS011;12022;52.266;10.522;2023-06-04T12:08:05;2.30;;;2.30;;
1537;SDS011;12022;52.266;10.522;2023-06-04T12:10:36;2.90;;;2.90;;
1537;SDS011;12022;52.266;10.522;2023-06-04T12:13:08;3.97;;;3.97;;
1537;SDS011;12022;52.266;10.522;2023-06-04T12:16:22;7.40;;;7.30;;
1537;SDS011;12022;52.266;10.522;2023-06-04T12:18:50;5.27;;;5.17;;
1537;SDS011;12022;52.266;10.522;2023-06-04T12:23:46;3.70;;;3.70;;
1537;SDS011;12022;52.266;10.522;2023-06-04T12:26:23;4.07;;;4.07;;
1537;SDS011;12022;52.266;10.522;2023-06-04T12:29:01;4.67;;;4.67;;
1537;SDS011;12022;52.266;10.522;2023-06-04T12:31:28;3.83;;;3.83;;
1537;SDS011;12022;52.266;10.522;2023-06-04T12:33:58;5.27;;;5.17;;
1537;SDS011;12022;52.266;10.522;2023-06-04T12:36:27;6.43;;;6.33;;
1537;SDS011;12022;52.266;10.522;2023-06-04T12:38:57;6.00;;;5.90;;
1537;SDS011;12022;52.266;10.522;2023-06-04T12:41:29;4.33;;;4.33;;
1537;SDS011;12022;52.266;10.522;2023-06-04T12:43:57;6.90;;;6.80;;
1537;SDS011;12022;52.266;10.522;2023-06-04T12:46:24;6.57;;;6.47;;
1537;SDS011;12022;52.266;10.522;2023-06-04T12:48:52;3.97;;;3.97;;
1537;SDS011;12022;52.266;10.522;2023-06-04T12:51:20;5.50;;;5.40;;
1537;SDS011;12022;52.266;10.522;2023-06-04T12:53:48;5.93;;;5.83;;
1537;SDS011;12022;52.266;10.522;2023-06-04T12:56:15;5.30;;;5.20;;
1537;SDS011;12022;52.266;10.522;2023-06-04T12:58:42;4.60;;;4.50;;
1537;SDS011;12022;52.266;10.522;2023-06-04T13:01:09;5.57;;;5.47;;
1537;SDS011;12022;52.266;10.522;2023-06-04T13:03:36;5.80;;;5.70;;
1537;SDS011;12022;52.266;10.522;2023-06-04T13:06:05;5.37;;;5.27;;
1537;SDS011;12022;52.266;10.522;2023-06-04T13:08:32;4.53;;;4.53;;
1537;SDS011;12022;52.266;10.522;2023-06-04T13:11:00;3.63;;;3.63;;
1537;SDS011;12022;52.266;10.522;2023-06-04T13:13:27;5.03;;;4.93;;
1537;SDS011;12022;52.266;10.522;2023-06-04T13:15:54;11.70;;;11.50;;
1537;SDS011;12022;52.266;10.522;2023-06-04T13:18:22;9.47;;;9.37;;
1537;SDS011;12022;52.266;10.522;2023-06-04T13:20:49;5.10;;;5.00;;
1537;SDS011;12022;52.266;10.522;2023-06-04T13:23:16;8.40;;;8.30;;
1537;SDS011;12022;52.266;10.522;2023-06-04T13:25:43;3.80;;;3.80;;
1537;SDS011;12022;52.266;10.522;2023-06-04T13:28:10;3.03;;;3.03;;
1537;SDS011;12022;52.266;10.522;2023-06-04T13:30:38;4.53;;;4.53;;
1537;SDS011;12022;52.266;10.522;2023-06-04T13:33:06;5.50;;;5.40;;
1537;SDS011;12022;52.266;10.522;2023-06-04T13:35:33;3.60;;;3.60;;
1537;SDS011;12022;52.266;10.522;2023-06-04T13:38:02;2.60;;;2.60;;
1537;SDS011;12022;52.266;10.522;2023-06-04T13:40:31;4.10;;;4.10;;
1537;SDS011;12022;52.266;10.522;2023-06-04T13:42:58;4.00;;;4.00;;
1537;SDS011;12022;52.266;10.522;2023-06-04T13:45:24;3.30;;;3.30;;
1537;SDS011;12022;52.266;10.522;2023-06-04T13:47:51;7.37;;;7.27;;
1537;SDS011;12022;52.266;10.522;2023-06-04T13:50:20;5.63;;;5.53;;
1537;SDS011;12022;52.266;10.522;2023-06-04T13:52:47;3.67;;;3.67;;
1537;SDS011;12022;52.266;10.522;2023-06-04T13:55:14;12.53;;;12.33;;
1537;SDS011;12022;52.266;10.522;2023-06-04T13:57:41;7.87;;;7.77;;
1537;SDS011;12022;52.266;10.522;2023-06-04T14:00:08;3.43;;;3.43;;
1537;SDS011;12022;52.266;10.522;2023-06-04T14:02:36;4.00;;;4.00;;
1537;SDS011;12022;52.266;10.522;2023-06-04T14:05:04;4.60;;;4.50;;
1537;SDS011;12022;52.266;10.522;2023-06-04T14:07:31;17.80;;;17.40;;
1537;SDS011;12022;52.266;10.522;2023-06-04T14:09:59;9.53;;;9.33;;
1537;SDS011;12022;52.266;10.522;2023-06-04T14:12:26;10.10;;;9.90;;
1537;SDS011;12022;52.266;10.522;2023-06-04T14:14:53;13.23;;;13.03;;
1537;SDS011;12022;52.266;10.522;2023-06-04T14:17:20;3.33;;;3.33;;
1537;SDS011;12022;52.266;10.522;2023-06-04T14:19:47;3.60;;;3.60;;
1537;SDS011;12022;52.266;10.522;2023-06-04T14:22:13;4.23;;;4.23;;
1537;SDS011;12022;52.266;10.522;2023-06-04T14:24:40;3.77;;;3.77;;
1537;SDS011;12022;52.266;10.522;2023-06-04T14:27:08;4.93;;;4.83;;
1537;SDS011;12022;52.266;10.522;2023-06-04T14:29:35;5.23;;;5.13;;
1537;SDS011;12022;52.266;10.522;2023-06-04T14:32:06;2.13;;;2.13;;
1537;SDS011;12022;52.266;10.522;2023-06-04T14:34:33;2.10;;;2.10;;
1537;SDS011;12022;52.266;10.522;2023-06-04T14:37:01;3.40;;;3.40;;
1537;SDS011;12022;52.266;10.522;2023-06-04T14:39:28;3.50;;;3.50;;
1537;SDS011;12022;52.266;10.522;2023-06-04T14:41:55;5.53;;;5.43;;
1537;SDS011;12022;52.266;10.522;2023-06-04T14:44:22;4.03;;;4.03;;
1537;SDS011;12022;52.266;10.522;2023-06-04T14:46:49;5.33;;;5.23;;
1537;SDS011;12022;52.266;10.522;2023-06-04T14:49:17;7.57;;;7.47;;
1537;SDS011;12022;52.266;10.522;2023-06-04T14:51:44;8.93;;;8.83;;
1537;SDS011;12022;52.266;10.522;2023-06-04T14:54:12;3.70;;;3.70;;
1537;SDS011;12022;52.266;10.522;2023-06-04T14:56:39;5.00;;;4.90;;
1537;SDS011;12022;52.266;10.522;2023-06-04T14:59:07;4.67;;;4.57;;